Time;durP1;ratioP1;P1;durP2;ratioP2;P2;SDS_P1;SDS_P2;PMS_P1;PMS_P2;Temp;Humidity;BMP_temperature;BMP_pressure;BME280_temperature;BME280_humidity;BME280_pressure;Samples;Min_cycle;Max_cycle;Signal;HPM_P1;HPM_P2
2023/09/06 00:00:33;;;;;;;4.18;2.10;;;18.30;99.90;;;;;;5105425;27;20044;-72
2023/09/06 00:03:00;;;;;;;4.72;2.15;;;18.30;99.90;;;;;;5087650;27;20127;-72
2023/09/06 00:05:29;;;;;;;3.78;2.28;;;18.20;99.90;;;;;;5098035;28;20044;-72
2023/09/06 00:07:55;;;;;;;3.03;1.80;;;18.30;99.90;;;;;;5106962;27;20516;-72
2023/09/06 00:10:21;;;;;;;5.88;1.85;;;18.30;99.90;;;;;;5101950;28;20035;-72
2023/09/06 00:12:47;;;;;;;3.17;1.70;;;18.30;99.90;;;;;;5104619;27;20062;-72
2023/09/06 00:15:13;;;;;;;4.05;2.20;;;18.20;99.90;;;;;;5102194;27;20035;-72
2023/09/06 00:17:41;;;;;;;3.65;1.83;;;18.20;99.90;;;;;;5106490;27;20045;-71
2023/09/06 00:20:20;;;;;;;3.38;2.00;;;18.20;99.90;;;;;;5101749;27;20054;-71
2023/09/06 00:22:59;;;;;;;4.15;2.00;;;18.20;99.90;;;;;;5103813;27;20119;-72
2023/09/06 00:25:26;;;;;;;3.30;1.70;;;18.20;99.90;;;;;;5108452;27;20043;-71
2023/09/06 00:27:54;;;;;;;3.72;1.70;;;18.10;99.90;;;;;;5101453;28;20532;-72
2023/09/06 00:30:19;;;;;;;3.33;1.80;;;18.10;99.90;;;;;;5106856;27;20038;-72
2023/09/06 00:32:46;;;;;;;2.80;1.77;;;18.10;99.90;;;;;;5106983;28;20425;-72
2023/09/06 00:35:12;;;;;;;5.85;2.22;;;18.10;99.90;;;;;;5104334;28;20067;-72
2023/09/06 00:37:39;;;;;;;3.30;2.05;;;18.00;99.90;;;;;;5088828;28;20329;-72
2023/09/06 00:40:17;;;;;;;3.38;1.80;;;18.00;99.90;;;;;;5091707;28;20079;-72
2023/09/06 00:42:45;;;;;;;2.97;1.60;;;18.00;99.90;;;;;;5093164;28;20385;-72
2023/09/06 00:45:10;;;;;;;4.22;2.20;;;18.00;99.90;;;;;;5105241;28;20591;-72
2023/09/06 00:47:36;;;;;;;6.53;2.33;;;17.90;99.90;;;;;;5109981;28;20497;-72
2023/09/06 00:50:02;;;;;;;4.72;2.28;;;18.00;99.90;;;;;;5102302;28;20071;-72
2023/09/06 00:52:29;;;;;;;5.40;2.30;;;18.00;99.90;;;;;;5103982;28;20423;-72
2023/09/06 00:54:55;;;;;;;7.10;2.25;;;18.00;99.90;;;;;;5100249;28;20042;-72
2023/09/06 00:57:21;;;;;;;3.58;2.20;;;18.00;99.90;;;;;;5069235;28;20043;-72
2023/09/06 00:59:50;;;;;;;3.72;2.20;;;18.10;99.90;;;;;;5103007;28;20401;-72
2023/09/06 01:02:15;;;;;;;4.85;1.98;;;18.00;99.90;;;;;;5101561;28;20039;-72
2023/09/06 01:04:41;;;;;;;6.13;2.10;;;18.00;99.90;;;;;;5102436;28;20417;-72
2023/09/06 01:07:09;;;;;;;6.70;2.28;;;18.00;99.90;;;;;;5083384;28;20047;-72
2023/09/06 01:09:36;;;;;;;3.85;1.90;;;18.00;99.90;;;;;;5101906;28;20067;-72
2023/09/06 01:12:01;;;;;;;4.82;2.35;;;18.00;99.90;;;;;;5092369;27;20481;-72
2023/09/06 01:14:27;;;;;;;3.88;2.08;;;18.00;99.90;;;;;;5072319;28;20042;-72
2023/09/06 01:16:55;;;;;;;2.75;1.77;;;18.00;99.90;;;;;;5106445;27;20035;-72
2023/09/06 01:19:25;;;;;;;3.20;1.88;;;17.90;99.90;;;;;;5107403;27;20571;-71
2023/09/06 01:22:08;;;;;;;3.45;1.88;;;17.90;99.90;;;;;;5103986;27;20093;-72
2023/09/06 01:24:35;;;;;;;4.55;1.95;;;17.90;99.90;;;;;;5106236;27;20035;-71
2023/09/06 01:27:01;;;;;;;3.65;2.13;;;17.80;99.90;;;;;;5106455;28;20297;-72
2023/09/06 01:29:29;;;;;;;4.95;2.10;;;17.80;99.90;;;;;;5115878;27;20035;-71
2023/09/06 01:31:54;;;;;;;4.45;2.10;;;17.80;99.90;;;;;;5094429;28;20537;-71
2023/09/06 01:34:20;;;;;;;5.05;1.92;;;17.80;99.90;;;;;;5111982;28;20028;-72
2023/09/06 01:36:46;;;;;;;3.97;1.92;;;17.80;99.90;;;;;;5108732;28;20497;-72
2023/09/06 01:39:11;;;;;;;3.83;1.67;;;17.80;99.90;;;;;;5111117;28;20027;-71
2023/09/06 01:41:37;;;;;;;4.68;2.15;;;17.80;99.90;;;;;;5093478;28;20484;-72
2023/09/06 01:44:03;;;;;;;4.78;1.80;;;17.80;99.90;;;;;;5108379;28;20036;-71
2023/09/06 01:46:28;;;;;;;3.38;1.92;;;17.80;99.90;;;;;;5111495;28;20036;-71
2023/09/06 01:48:54;;;;;;;2.42;1.75;;;17.80;99.90;;;;;;5103300;27;20120;-72
2023/09/06 01:51:19;;;;;;;2.92;1.90;;;17.80;99.90;;;;;;5107130;27;20435;-72
2023/09/06 01:53:45;;;;;;;5.90;2.40;;;17.70;99.90;;;;;;5107090;27;20043;-71
2023/09/06 01:56:10;;;;;;;3.08;1.85;;;17.70;99.90;;;;;;5070187;28;20786;-71
2023/09/06 01:58:37;;;;;;;3.15;1.90;;;17.70;99.90;;;;;;5102554;27;20336;-72
2023/09/06 02:01:09;;;;;;;3.33;1.73;;;17.70;99.90;;;;;;5108086;27;20067;-72
2023/09/06 02:03:35;;;;;;;3.40;1.80;;;17.60;99.90;;;;;;5102835;27;20134;-71
2023/09/06 02:06:01;;;;;;;3.88;1.75;;;17.60;99.90;;;;;;5104442;27;20114;-71
2023/09/06 02:08:27;;;;;;;4.22;1.85;;;17.60;99.90;;;;;;5106612;28;20043;-72
2023/09/06 02:10:52;;;;;;;2.78;1.92;;;17.60;99.90;;;;;;5106745;27;20055;-72
2023/09/06 02:13:18;;;;;;;3.72;1.77;;;17.50;99.90;;;;;;5105151;27;20116;-72
2023/09/06 02:15:43;;;;;;;3.90;2.00;;;17.50;99.90;;;;;;5104313;27;20043;-72
2023/09/06 02:18:10;;;;;;;3.30;2.05;;;17.40;99.90;;;;;;5106720;27;20035;-72
2023/09/06 02:20:38;;;;;;;3.20;1.77;;;17.40;99.90;;;;;;5084661;28;20127;-72
2023/09/06 02:23:05;;;;;;;3.33;1.70;;;17.30;99.90;;;;;;5086542;28;20500;-72
2023/09/06 02:25:33;;;;;;;4.85;1.98;;;17.40;99.90;;;;;;5104720;27;20516;-71
2023/09/06 02:28:04;;;;;;;3.47;1.80;;;17.30;99.90;;;;;;5107833;27;20042;-72
2023/09/06 02:30:30;;;;;;;3.33;2.10;;;17.30;99.90;;;;;;5106784;27;20169;-71
2023/09/06 02:32:56;;;;;;;2.30;1.58;;;17.20;99.90;;;;;;5105680;28;20043;-72
2023/09/06 02:35:21;;;;;;;4.55;2.17;;;17.20;99.90;;;;;;5105104;27;20047;-72
2023/09/06 02:37:47;;;;;;;4.32;1.88;;;17.20;99.90;;;;;;5107540;27;20034;-71
2023/09/06 02:40:14;;;;;;;6.75;2.38;;;17.20;99.90;;;;;;5107353;27;20199;-71
2023/09/06 02:42:41;;;;;;;4.32;2.20;;;17.10;99.90;;;;;;5101497;27;20055;-72
2023/09/06 02:45:09;;;;;;;4.25;1.85;;;17.10;99.90;;;;;;5089346;28;20189;-71
2023/09/06 02:47:37;;;;;;;4.40;2.38;;;17.10;99.90;;;;;;5107026;27;20084;-72
2023/09/06 02:50:05;;;;;;;3.03;1.70;;;17.10;99.90;;;;;;5101663;27;20044;-72
2023/09/06 02:52:35;;;;;;;4.00;2.10;;;17.10;99.90;;;;;;5104665;27;20036;-71
2023/09/06 02:55:04;;;;;;;2.42;1.60;;;17.10;99.90;;;;;;5104926;27;20258;-72
2023/09/06 02:57:31;;;;;;;2.60;1.80;;;17.00;99.90;;;;;;5107431;27;20035;-71
2023/09/06 02:59:57;;;;;;;3.15;1.80;;;17.00;99.90;;;;;;5100861;27;20544;-71
2023/09/06 03:02:23;;;;;;;2.97;1.90;;;17.00;99.90;;;;;;5105782;27;20043;-71
2023/09/06 03:04:54;;;;;;;3.25;1.70;;;17.00;99.90;;;;;;5107535;27;20035;-72
2023/09/06 03:07:21;;;;;;;3.88;2.17;;;17.00;99.90;;;;;;5110124;27;20047;-71
2023/09/06 03:09:49;;;;;;;2.88;1.65;;;16.90;99.90;;;;;;5103453;27;20051;-72
2023/09/06 03:12:15;;;;;;;4.72;2.00;;;16.90;99.90;;;;;;5106797;27;20036;-71
2023/09/06 03:14:44;;;;;;;3.70;2.10;;;17.00;99.90;;;;;;5106141;27;20040;-71
2023/09/06 03:17:13;;;;;;;3.33;1.75;;;16.90;99.90;;;;;;5089123;28;20043;-71
2023/09/06 03:19:44;;;;;;;3.58;1.90;;;16.90;99.90;;;;;;5099247;27;20469;-72
2023/09/06 03:22:12;;;;;;;3.55;2.00;;;16.90;99.90;;;;;;5101992;27;20027;-71
2023/09/06 03:24:41;;;;;;;4.13;2.35;;;16.90;99.90;;;;;;5104875;28;20428;-71
2023/09/06 03:27:07;;;;;;;3.35;1.73;;;16.90;99.90;;;;;;5104882;27;20062;-72
2023/09/06 03:29:36;;;;;;;2.65;1.60;;;16.90;99.90;;;;;;5099255;27;20519;-72
2023/09/06 03:32:09;;;;;;;3.72;1.80;;;16.90;99.90;;;;;;5106269;28;20082;-71
2023/09/06 03:34:35;;;;;;;4.22;1.98;;;16.90;99.90;;;;;;5087575;28;20471;-71
2023/09/06 03:37:04;;;;;;;5.07;1.98;;;16.90;99.90;;;;;;5106130;28;20072;-72
2023/09/06 03:39:37;;;;;;;3.70;1.90;;;16.90;99.90;;;;;;5111619;27;20034;-71
2023/09/06 03:42:08;;;;;;;3.55;2.00;;;16.80;99.90;;;;;;5105809;28;20031;-71
2023/09/06 03:44:37;;;;;;;5.25;2.08;;;16.80;99.90;;;;;;5110397;28;20044;-71
2023/09/06 03:47:05;;;;;;;4.30;1.95;;;16.80;99.90;;;;;;5108112;28;20389;-71
2023/09/06 03:49:35;;;;;;;3.70;1.80;;;16.80;99.90;;;;;;5103580;28;20457;-71
2023/09/06 03:52:04;;;;;;;3.67;2.03;;;16.80;99.90;;;;;;5105114;27;20031;-72
2023/09/06 03:54:34;;;;;;;3.15;1.80;;;16.80;99.90;;;;;;5103723;27;20043;-71
2023/09/06 03:57:00;;;;;;;3.28;1.98;;;16.80;99.90;;;;;;5104966;28;20048;-71
2023/09/06 03:59:26;;;;;;;7.70;2.22;;;16.80;99.90;;;;;;5103055;27;20027;-72
2023/09/06 04:01:51;;;;;;;4.20;2.28;;;16.80;99.90;;;;;;5103553;27;20495;-72
2023/09/06 04:04:17;;;;;;;3.72;1.92;;;16.70;99.90;;;;;;5108686;27;20369;-71
2023/09/06 04:06:43;;;;;;;3.40;1.70;;;16.70;99.90;;;;;;5109996;27;20500;-72
2023/09/06 04:09:13;;;;;;;3.97;1.95;;;16.70;99.90;;;;;;5098681;28;20031;-71
2023/09/06 04:11:40;;;;;;;3.65;2.03;;;16.70;99.90;;;;;;5102685;27;20450;-72
2023/09/06 04:14:05;;;;;;;4.55;1.85;;;16.70;99.90;;;;;;5104350;27;20032;-71
2023/09/06 04:16:31;;;;;;;4.18;2.10;;;16.70;99.90;;;;;;5106116;27;20035;-72
2023/09/06 04:18:57;;;;;;;3.20;1.90;;;16.60;99.90;;;;;;5103667;28;20032;-72
2023/09/06 04:21:22;;;;;;;3.95;2.10;;;16.70;99.90;;;;;;5104125;27;20417;-72
2023/09/06 04:23:48;;;;;;;3.70;2.20;;;16.60;99.90;;;;;;5100974;27;20512;-71
2023/09/06 04:26:14;;;;;;;3.97;2.45;;;16.60;99.90;;;;;;5104384;27;20044;-72
2023/09/06 04:28:40;;;;;;;5.60;2.20;;;16.60;99.90;;;;;;5103532;27;20036;-71
2023/09/06 04:31:06;;;;;;;4.03;2.10;;;16.60;99.90;;;;;;5099709;28;20614;-72
2023/09/06 04:33:32;;;;;;;4.15;2.55;;;16.60;99.90;;;;;;5102055;27;20052;-71
2023/09/06 04:35:57;;;;;;;4.43;2.10;;;16.60;99.90;;;;;;5104716;27;20262;-72
2023/09/06 04:38:23;;;;;;;3.70;2.15;;;16.60;99.90;;;;;;5105508;27;20040;-71
2023/09/06 04:40:49;;;;;;;7.45;2.45;;;16.60;99.90;;;;;;5083133;28;20428;-71
2023/09/06 04:43:16;;;;;;;4.40;2.72;;;16.60;99.90;;;;;;5103723;27;20031;-71
2023/09/06 04:45:43;;;;;;;4.25;2.88;;;16.60;99.90;;;;;;5102139;27;20397;-72
2023/09/06 04:48:10;;;;;;;4.93;2.58;;;16.60;99.90;;;;;;5102094;27;20123;-72
2023/09/06 04:50:40;;;;;;;6.28;3.10;;;16.60;99.90;;;;;;5100332;28;20043;-72
2023/09/06 04:53:11;;;;;;;5.25;2.65;;;16.60;99.90;;;;;;5106060;28;20080;-72
2023/09/06 04:55:37;;;;;;;4.78;2.72;;;16.60;99.90;;;;;;5103479;28;20535;-72
2023/09/06 04:58:04;;;;;;;4.43;2.50;;;16.60;99.90;;;;;;5102066;28;20042;-72
2023/09/06 05:00:37;;;;;;;5.53;2.72;;;16.60;99.90;;;;;;5081719;28;20035;-72
2023/09/06 05:03:08;;;;;;;7.15;2.60;;;16.50;99.90;;;;;;5103767;28;20161;-72
2023/09/06 05:05:35;;;;;;;5.28;2.08;;;16.60;99.90;;;;;;5107328;27;20551;-72
2023/09/06 05:08:00;;;;;;;7.28;2.97;;;16.50;99.90;;;;;;5102129;28;20568;-72
2023/09/06 05:10:26;;;;;;;5.70;2.67;;;16.50;99.90;;;;;;5098595;28;20492;-72
2023/09/06 05:12:51;;;;;;;4.85;2.70;;;16.50;99.90;;;;;;5101914;28;20046;-72
2023/09/06 05:15:17;;;;;;;5.22;2.78;;;16.50;99.90;;;;;;5103337;28;20460;-72
2023/09/06 05:17:42;;;;;;;5.75;2.83;;;16.50;99.90;;;;;;5104770;28;20047;-72
2023/09/06 05:20:28;;;;;;;6.68;3.35;;;16.50;99.90;;;;;;5100175;28;20048;-72
2023/09/06 05:22:55;;;;;;;4.45;2.47;;;16.60;99.90;;;;;;5102046;28;20408;-72
2023/09/06 05:25:22;;;;;;;6.60;2.63;;;16.50;99.90;;;;;;5107498;28;20092;-72
2023/09/06 05:27:48;;;;;;;4.93;2.55;;;16.50;99.90;;;;;;5103492;28;20643;-72
2023/09/06 05:30:14;;;;;;;6.38;2.35;;;16.50;99.90;;;;;;5102342;28;20221;-71
2023/09/06 05:32:39;;;;;;;6.93;2.70;;;16.50;99.90;;;;;;5104900;28;20419;-72
2023/09/06 05:35:05;;;;;;;6.18;2.83;;;16.50;99.90;;;;;;5104281;28;20456;-72
2023/09/06 05:37:31;;;;;;;5.07;2.70;;;16.50;99.90;;;;;;5107977;28;20027;-72
2023/09/06 05:39:57;;;;;;;4.80;2.63;;;16.50;99.90;;;;;;5103665;28;20048;-72
2023/09/06 05:42:22;;;;;;;4.97;3.00;;;16.50;99.90;;;;;;5105516;28;20078;-72
2023/09/06 05:44:48;;;;;;;3.88;2.50;;;16.50;99.90;;;;;;5101870;28;20035;-72
2023/09/06 05:47:13;;;;;;;5.03;2.22;;;16.50;99.90;;;;;;5078665;28;20092;-71
2023/09/06 05:49:40;;;;;;;5.05;3.22;;;16.50;99.90;;;;;;5101376;28;20043;-72
2023/09/06 05:52:06;;;;;;;4.30;2.90;;;16.50;99.90;;;;;;5094710;28;20044;-73
2023/09/06 05:54:32;;;;;;;5.20;2.75;;;16.60;99.90;;;;;;5038508;28;20035;-73
2023/09/06 05:56:57;;;;;;;4.70;2.78;;;16.60;99.90;;;;;;5096005;28;20050;-71
2023/09/06 05:59:23;;;;;;;5.28;2.85;;;16.60;99.90;;;;;;5094199;28;20039;-71
2023/09/06 06:01:49;;;;;;;3.92;2.80;;;16.60;99.90;;;;;;5100221;27;20665;-71
2023/09/06 06:04:15;;;;;;;6.32;3.00;;;16.60;99.90;;;;;;5101073;28;20105;-71
2023/09/06 06:06:43;;;;;;;5.20;2.92;;;16.60;99.90;;;;;;5097449;28;20488;-72
2023/09/06 06:09:11;;;;;;;6.07;3.08;;;16.60;99.90;;;;;;5100758;28;20516;-69
2023/09/06 06:11:40;;;;;;;4.72;2.63;;;16.60;99.90;;;;;;5081936;28;20108;-70
2023/09/06 06:14:06;;;;;;;8.73;3.15;;;16.60;99.90;;;;;;5099681;28;20039;-71
2023/09/06 06:16:32;;;;;;;5.15;2.83;;;16.70;99.90;;;;;;5102522;28;20384;-72
2023/09/06 06:18:57;;;;;;;5.55;3.30;;;16.70;99.90;;;;;;5098543;28;20043;-71
2023/09/06 06:21:24;;;;;;;4.68;2.80;;;16.70;99.90;;;;;;5112283;27;20145;-72
2023/09/06 06:23:50;;;;;;;6.03;2.78;;;16.70;99.90;;;;;;5099498;28;20478;-72
2023/09/06 06:26:19;;;;;;;3.83;2.50;;;16.80;99.90;;;;;;5101615;27;20024;-72
2023/09/06 06:28:45;;;;;;;6.45;2.78;;;16.80;99.90;;;;;;5105010;28;20049;-72
2023/09/06 06:31:11;;;;;;;6.32;3.20;;;16.80;99.90;;;;;;5105179;28;20039;-72
2023/09/06 06:33:38;;;;;;;6.63;3.38;;;16.80;99.90;;;;;;5085809;28;20568;-72
2023/09/06 06:36:04;;;;;;;5.93;2.80;;;16.90;99.90;;;;;;5086450;28;20051;-72
2023/09/06 06:38:30;;;;;;;6.30;2.70;;;16.90;99.90;;;;;;5099905;28;20084;-72
2023/09/06 06:40:56;;;;;;;4.00;2.42;;;16.90;99.90;;;;;;5107936;28;20032;-72
2023/09/06 06:43:21;;;;;;;7.88;2.90;;;16.90;99.90;;;;;;5106630;28;20437;-72
2023/09/06 06:45:53;;;;;;;4.80;2.40;;;17.00;99.90;;;;;;5106133;28;20043;-72
2023/09/06 06:48:22;;;;;;;7.20;2.85;;;17.00;99.90;;;;;;5106818;28;20039;-72
2023/09/06 06:50:48;;;;;;;4.03;2.22;;;17.10;99.90;;;;;;5100028;28;20035;-72
2023/09/06 06:53:14;;;;;;;4.75;2.97;;;17.10;99.90;;;;;;5102316;28;20591;-72
2023/09/06 06:55:40;;;;;;;4.70;2.80;;;17.20;99.90;;;;;;5106706;28;20043;-72
2023/09/06 06:58:08;;;;;;;4.45;2.42;;;17.20;99.90;;;;;;5104623;28;20031;-72
2023/09/06 07:00:34;;;;;;;5.57;2.72;;;17.30;99.90;;;;;;5102120;28;20096;-72
2023/09/06 07:03:00;;;;;;;4.63;2.35;;;17.30;99.90;;;;;;5084324;28;20061;-72
2023/09/06 07:05:26;;;;;;;4.43;2.50;;;17.30;99.90;;;;;;5098221;28;20434;-72
2023/09/06 07:07:52;;;;;;;5.10;2.05;;;17.40;99.90;;;;;;5103049;28;20134;-73
2023/09/06 07:10:17;;;;;;;5.25;2.50;;;17.50;99.90;;;;;;5086941;28;20084;-72
2023/09/06 07:12:43;;;;;;;5.70;1.83;;;17.50;99.90;;;;;;5104345;28;20059;-72
2023/09/06 07:15:09;;;;;;;2.97;1.80;;;17.60;99.90;;;;;;5101411;28;20059;-73
2023/09/06 07:17:35;;;;;;;6.97;1.63;;;17.60;99.90;;;;;;5103021;28;20474;-72
2023/09/06 07:20:02;;;;;;;4.68;1.77;;;17.70;99.90;;;;;;5101006;28;20047;-72
2023/09/06 07:22:27;;;;;;;3.05;1.70;;;17.70;99.90;;;;;;5102442;28;20050;-73
2023/09/06 07:24:53;;;;;;;4.38;1.48;;;17.80;99.90;;;;;;5104043;27;20405;-72
2023/09/06 07:27:20;;;;;;;3.00;1.65;;;17.90;99.90;;;;;;5104823;28;20070;-72
2023/09/06 07:29:46;;;;;;;2.70;1.60;;;18.00;99.90;;;;;;5099226;28;20092;-74
2023/09/06 07:32:13;;;;;;;5.30;1.65;;;18.10;99.90;;;;;;5092271;28;20048;-72
2023/09/06 07:34:38;;;;;;;2.83;1.42;;;18.10;99.90;;;;;;5105038;28;20054;-72
2023/09/06 07:37:04;;;;;;;2.50;1.30;;;18.20;99.90;;;;;;5103811;28;20385;-72
2023/09/06 07:39:29;;;;;;;3.90;1.98;;;18.20;99.90;;;;;;5102283;28;20158;-72
2023/09/06 07:41:56;;;;;;;3.42;1.25;;;18.30;99.90;;;;;;5088159;28;20040;-72
2023/09/06 07:44:22;;;;;;;4.38;1.60;;;18.40;99.90;;;;;;5106567;28;20038;-72
2023/09/06 07:46:48;;;;;;;3.63;1.70;;;18.50;99.90;;;;;;5106177;28;20027;-72
2023/09/06 07:49:18;;;;;;;2.97;1.70;;;18.50;99.90;;;;;;5106367;28;20511;-72
2023/09/06 07:51:44;;;;;;;2.92;1.52;;;18.60;99.90;;;;;;5103379;28;20130;-72
2023/09/06 07:54:11;;;;;;;3.10;1.50;;;18.70;99.90;;;;;;5104461;28;20160;-72
2023/09/06 07:56:38;;;;;;;2.20;1.20;;;18.70;99.90;;;;;;5103346;28;20039;-72
2023/09/06 07:59:03;;;;;;;2.45;1.40;;;18.80;99.90;;;;;;5102896;28;20046;-72
2023/09/06 08:01:29;;;;;;;2.28;1.17;;;18.90;99.90;;;;;;5071189;28;20472;-72
2023/09/06 08:03:56;;;;;;;2.35;1.30;;;18.90;99.90;;;;;;5100878;28;20066;-72
2023/09/06 08:06:22;;;;;;;4.82;1.50;;;19.00;99.90;;;;;;5102518;27;20508;-72
2023/09/06 08:08:47;;;;;;;3.67;1.33;;;19.10;99.90;;;;;;5105056;28;20130;-73
2023/09/06 08:11:16;;;;;;;2.22;1.13;;;19.10;99.90;;;;;;5089291;28;20027;-72
2023/09/06 08:13:42;;;;;;;2.42;1.42;;;19.20;99.90;;;;;;5105889;28;20044;-72
2023/09/06 08:16:08;;;;;;;4.32;1.45;;;19.20;99.90;;;;;;5102586;28;20042;-72
2023/09/06 08:18:33;;;;;;;2.45;1.25;;;19.30;99.90;;;;;;5102947;28;20136;-74
2023/09/06 08:21:00;;;;;;;2.72;1.27;;;19.40;99.90;;;;;;5098602;28;20521;-72
2023/09/06 08:23:26;;;;;;;2.00;1.10;;;19.40;99.90;;;;;;5083848;28;20345;-71
2023/09/06 19:18:06;;;;;;;2.50;1.35;;;21.00;99.90;;;;;;5158153;27;20331;-71
2023/09/06 19:20:32;;;;;;;3.42;1.45;;;20.90;99.90;;;;;;5118169;27;20069;-71
2023/09/06 19:22:58;;;;;;;2.00;1.23;;;20.90;99.90;;;;;;5141177;27;20141;-71
2023/09/06 19:25:24;;;;;;;3.10;1.50;;;20.80;99.90;;;;;;5121065;27;20035;-71
2023/09/06 19:27:51;;;;;;;2.65;1.20;;;20.80;99.90;;;;;;5139037;27;20031;-71
2023/09/06 19:30:17;;;;;;;1.65;1.00;;;20.80;99.90;;;;;;5103524;27;20039;-71
2023/09/06 19:32:43;;;;;;;2.47;1.10;;;20.70;99.90;;;;;;5123409;27;20095;-71
2023/09/06 19:35:09;;;;;;;2.35;1.25;;;20.70;99.90;;;;;;5120106;27;20051;-71
2023/09/06 19:37:35;;;;;;;3.38;1.27;;;20.80;99.90;;;;;;5120930;27;20031;-71
2023/09/06 19:40:01;;;;;;;3.15;1.20;;;20.70;99.90;;;;;;5156095;27;20053;-71
2023/09/06 19:42:27;;;;;;;2.45;1.20;;;20.70;99.90;;;;;;5123227;27;20319;-71
2023/09/06 19:44:53;;;;;;;2.30;1.20;;;20.70;99.90;;;;;;5135131;27;20031;-71
2023/09/06 19:47:19;;;;;;;3.45;1.20;;;20.70;99.90;;;;;;5120157;27;20103;-71
2023/09/06 19:49:45;;;;;;;2.85;1.08;;;20.70;99.90;;;;;;5142215;27;20039;-72
2023/09/06 19:52:11;;;;;;;2.85;1.25;;;20.60;99.90;;;;;;5119058;27;20129;-72
2023/09/06 19:54:37;;;;;;;1.73;1.00;;;20.60;99.90;;;;;;5134564;27;20709;-71
2023/09/06 19:57:03;;;;;;;2.42;1.20;;;20.50;99.90;;;;;;5116838;27;20035;-71
2023/09/06 19:59:30;;;;;;;2.28;1.20;;;20.50;99.90;;;;;;5119799;27;20551;-71
2023/09/06 20:01:55;;;;;;;3.22;1.30;;;20.50;99.90;;;;;;5121208;27;20075;-71
2023/09/06 20:04:21;;;;;;;2.47;1.00;;;20.40;99.90;;;;;;5118418;27;20135;-71
2023/09/06 20:06:47;;;;;;;2.28;1.27;;;20.40;99.90;;;;;;5138375;27;20050;-71
2023/09/06 20:09:13;;;;;;;2.78;1.10;;;20.40;99.90;;;;;;5148790;27;20055;-71
2023/09/06 20:11:38;;;;;;;2.45;1.13;;;20.30;99.90;;;;;;5141478;27;20026;-72
2023/09/06 20:14:06;;;;;;;2.35;1.02;;;20.30;99.90;;;;;;5138951;27;20591;-71
2023/09/06 20:16:32;;;;;;;2.63;1.20;;;20.30;99.90;;;;;;5134104;27;20082;-71
2023/09/06 20:18:58;;;;;;;2.80;1.20;;;20.20;99.90;;;;;;5139341;27;20074;-71
2023/09/06 20:21:24;;;;;;;2.08;1.17;;;20.20;99.90;;;;;;5131834;27;20039;-71
2023/09/06 20:23:50;;;;;;;3.47;1.48;;;20.20;99.90;;;;;;5155297;27;20027;-71
2023/09/06 20:26:15;;;;;;;2.75;1.23;;;20.20;99.90;;;;;;5103276;27;20126;-71
2023/09/06 20:28:41;;;;;;;1.52;0.85;;;20.20;99.90;;;;;;5129563;27;20126;-71
2023/09/06 20:31:10;;;;;;;2.92;1.40;;;20.10;99.90;;;;;;5124325;27;20409;-71
2023/09/06 20:33:36;;;;;;;2.30;1.10;;;20.10;99.90;;;;;;5108312;27;20484;-72
2023/09/06 20:36:05;;;;;;;1.85;1.00;;;20.10;99.90;;;;;;5124994;27;20055;-71
2023/09/06 20:38:32;;;;;;;3.55;1.60;;;20.00;99.90;;;;;;5124810;27;20067;-71
2023/09/06 20:40:59;;;;;;;1.73;0.80;;;20.00;99.90;;;;;;5107082;27;20031;-71
2023/09/06 20:43:29;;;;;;;3.05;1.23;;;20.00;99.90;;;;;;5109020;27;20083;-71
2023/09/06 20:45:55;;;;;;;2.47;1.17;;;20.00;99.90;;;;;;5124102;27;20034;-71
2023/09/06 20:48:22;;;;;;;1.83;1.15;;;19.90;99.90;;;;;;5124496;27;20112;-72
2023/09/06 20:50:53;;;;;;;2.25;1.10;;;19.90;99.90;;;;;;5103217;27;20484;-71
2023/09/06 20:53:21;;;;;;;2.42;1.23;;;19.90;99.90;;;;;;5139895;27;20058;-71
2023/09/06 20:55:47;;;;;;;2.92;1.00;;;19.80;99.90;;;;;;5124933;27;20043;-71
2023/09/06 20:58:15;;;;;;;2.63;1.08;;;19.80;99.90;;;;;;5123880;27;20031;-71
2023/09/06 21:00:42;;;;;;;1.88;1.10;;;19.80;99.90;;;;;;5121441;27;20124;-71
2023/09/06 21:03:08;;;;;;;2.47;1.02;;;19.80;99.90;;;;;;5124865;27;20086;-71
2023/09/06 21:05:34;;;;;;;2.20;1.13;;;19.80;99.90;;;;;;5102534;27;20126;-72
2023/09/06 21:07:59;;;;;;;2.17;1.08;;;19.80;99.90;;;;;;5121454;27;20836;-71
2023/09/06 21:10:25;;;;;;;2.47;1.20;;;19.70;99.90;;;;;;5123438;27;20032;-71
2023/09/06 21:12:50;;;;;;;3.42;0.95;;;19.70;99.90;;;;;;5105030;27;20054;-72
2023/09/06 21:15:16;;;;;;;3.72;1.10;;;19.70;99.90;;;;;;5122753;27;20067;-72
2023/09/06 21:17:42;;;;;;;3.60;1.20;;;19.70;99.90;;;;;;5124247;27;20070;-71
2023/09/06 21:20:08;;;;;;;2.20;1.23;;;19.60;99.90;;;;;;5120793;27;20054;-71
2023/09/06 21:22:33;;;;;;;3.28;1.38;;;19.60;99.90;;;;;;5101443;27;20051;-71
2023/09/06 21:24:59;;;;;;;2.55;1.48;;;19.60;99.90;;;;;;5083106;27;20054;-72
2023/09/06 21:27:24;;;;;;;2.55;1.20;;;19.60;99.90;;;;;;5104323;27;20048;-71
2023/09/06 21:29:50;;;;;;;2.38;1.30;;;19.50;99.90;;;;;;5115696;27;20039;-71
2023/09/06 21:32:15;;;;;;;2.33;1.10;;;19.60;99.90;;;;;;5118868;27;20043;-71
2023/09/06 21:34:41;;;;;;;2.45;1.23;;;19.60;99.90;;;;;;5122781;27;20027;-71
2023/09/06 21:37:06;;;;;;;2.78;1.30;;;19.50;99.90;;;;;;5111540;27;20031;-71
2023/09/06 21:39:32;;;;;;;2.42;1.20;;;19.50;99.90;;;;;;5124911;27;20038;-71
2023/09/06 21:41:57;;;;;;;2.30;1.00;;;19.50;99.90;;;;;;5138554;27;20459;-70
2023/09/06 21:44:23;;;;;;;2.13;1.10;;;19.50;99.90;;;;;;5093380;27;20526;-70
2023/09/06 21:46:49;;;;;;;3.20;1.00;;;19.50;99.90;;;;;;5130610;27;20070;-71
2023/09/06 21:49:14;;;;;;;6.07;1.33;;;19.40;99.90;;;;;;5101075;28;20443;-70
2023/09/06 21:51:40;;;;;;;1.92;1.02;;;19.40;99.90;;;;;;5118163;27;20035;-70
2023/09/06 21:54:05;;;;;;;3.22;1.10;;;19.40;99.90;;;;;;5107850;27;20110;-70
2023/09/06 21:56:31;;;;;;;2.85;1.15;;;19.40;99.90;;;;;;5139505;27;20524;-71
2023/09/06 21:58:57;;;;;;;3.25;1.10;;;19.30;99.90;;;;;;5125706;27;20493;-71
2023/09/06 22:01:23;;;;;;;1.95;1.08;;;19.30;99.90;;;;;;5116899;27;20032;-71
2023/09/06 22:03:49;;;;;;;4.32;1.23;;;19.30;99.90;;;;;;5120756;27;20485;-71
2023/09/06 22:06:15;;;;;;;2.60;1.30;;;19.30;99.90;;;;;;5093082;28;20080;-71
2023/09/06 22:08:41;;;;;;;2.22;1.20;;;19.30;99.90;;;;;;5138310;27;20509;-71
2023/09/06 22:11:06;;;;;;;2.00;1.10;;;19.30;99.90;;;;;;5101014;27;20031;-70
2023/09/06 22:13:32;;;;;;;2.08;1.30;;;19.20;99.90;;;;;;5116073;27;20108;-70
2023/09/06 22:15:58;;;;;;;3.45;1.30;;;19.20;99.90;;;;;;5120082;27;20060;-70
2023/09/06 22:18:23;;;;;;;1.48;1.00;;;19.20;99.90;;;;;;5111659;27;20150;-70
2023/09/06 22:20:49;;;;;;;3.83;1.50;;;19.20;99.90;;;;;;5126616;27;20027;-71
2023/09/06 22:23:17;;;;;;;2.33;1.50;;;19.10;99.90;;;;;;5126618;27;20558;-70
2023/09/06 22:25:43;;;;;;;2.80;1.30;;;19.10;99.90;;;;;;5122919;27;20101;-71
2023/09/06 22:28:08;;;;;;;3.35;1.55;;;19.00;99.90;;;;;;5102012;27;20503;-71
2023/09/06 22:30:40;;;;;;;3.75;1.60;;;19.00;99.90;;;;;;5105611;27;20050;-70
2023/09/06 22:33:05;;;;;;;3.60;1.67;;;19.00;99.90;;;;;;5099847;28;20031;-71
2023/09/06 22:35:31;;;;;;;4.15;1.60;;;19.00;99.90;;;;;;5129176;27;20084;-70
2023/09/06 22:37:56;;;;;;;3.25;1.58;;;18.90;99.90;;;;;;5129485;27;20043;-70
2023/09/06 22:40:22;;;;;;;3.65;1.85;;;18.90;99.90;;;;;;5124755;27;20036;-71
2023/09/06 22:42:48;;;;;;;3.55;1.90;;;18.90;99.90;;;;;;5094786;27;20027;-70
2023/09/06 22:45:13;;;;;;;4.35;2.17;;;18.90;99.90;;;;;;5129265;27;20743;-70
2023/09/06 22:47:39;;;;;;;3.60;1.90;;;18.90;99.90;;;;;;5103229;27;20043;-71
2023/09/06 22:50:05;;;;;;;5.72;2.03;;;18.90;99.90;;;;;;5124139;27;20039;-71
2023/09/06 22:52:31;;;;;;;3.63;1.90;;;18.90;99.90;;;;;;5128198;27;20039;-71
2023/09/06 22:54:57;;;;;;;5.28;2.22;;;18.90;99.90;;;;;;5092151;27;20472;-70
2023/09/06 22:57:22;;;;;;;3.53;2.10;;;18.90;99.90;;;;;;5131133;27;20039;-71
2023/09/06 22:59:48;;;;;;;3.55;2.38;;;18.90;99.90;;;;;;5130272;27;20031;-70
2023/09/06 23:02:13;;;;;;;7.25;2.60;;;19.00;99.90;;;;;;5127131;27;20035;-70
2023/09/06 23:04:40;;;;;;;4.72;2.70;;;19.00;99.90;;;;;;5114772;27;20063;-71
2023/09/06 23:07:06;;;;;;;3.85;2.00;;;19.00;99.90;;;;;;5139488;27;20118;-70
2023/09/06 23:09:32;;;;;;;4.32;2.25;;;19.10;99.90;;;;;;5094084;27;20074;-71
2023/09/06 23:12:04;;;;;;;6.10;2.20;;;19.10;99.90;;;;;;5115832;27;20122;-70
2023/09/06 23:14:35;;;;;;;6.25;2.40;;;19.10;99.90;;;;;;5139624;27;20035;-70
2023/09/06 23:17:07;;;;;;;3.70;1.95;;;19.10;99.90;;;;;;5118627;28;20059;-71
2023/09/06 23:19:38;;;;;;;2.75;1.98;;;19.10;99.90;;;;;;5126796;28;20408;-71
2023/09/06 23:22:06;;;;;;;3.58;2.08;;;19.10;99.90;;;;;;5105676;28;20035;-70
2023/09/06 23:24:35;;;;;;;3.85;2.15;;;19.10;99.90;;;;;;5106486;28;20477;-70
2023/09/06 23:27:06;;;;;;;3.65;2.20;;;19.10;99.90;;;;;;5102902;28;20074;-71
2023/09/06 23:29:37;;;;;;;4.32;2.10;;;19.10;99.90;;;;;;5105553;28;20048;-70
2023/09/06 23:32:04;;;;;;;4.00;1.75;;;19.10;99.90;;;;;;5125955;28;20041;-70
2023/09/06 23:34:30;;;;;;;3.63;1.83;;;19.00;99.90;;;;;;5106997;28;20778;-71
2023/09/06 23:36:57;;;;;;;3.67;2.17;;;19.00;99.90;;;;;;5120032;28;20122;-70